sensor_id;sensor_type;location;lat;lon;timestamp;temperature;humidity
15241;DHT22;7723;52.170;9.978;2023-09-19T00:00:16;15.10;99.90
15241;DHT22;7723;52.170;9.978;2023-09-19T00:02:46;15.10;99.90
15241;DHT22;7723;52.170;9.978;2023-09-19T00:05:14;15.20;99.90
15241;DHT22;7723;52.170;9.978;2023-09-19T00:07:41;15.20;99.90
15241;DHT22;7723;52.170;9.978;2023-09-19T00:10:08;15.20;99.90
15241;DHT22;7723;52.170;9.978;2023-09-19T00:12:36;15.20;99.90
15241;DHT22;7723;52.170;9.978;2023-09-19T00:15:06;15.30;99.90
15241;DHT22;7723;52.170;9.978;2023-09-19T00:17:33;15.30;99.90
15241;DHT22;7723;52.170;9.978;2023-09-19T00:20:00;15.30;99.90
15241;DHT22;7723;52.170;9.978;2023-09-19T00:22:40;15.30;99.90
15241;DHT22;7723;52.170;9.978;2023-09-19T00:25:09;15.20;99.90
15241;DHT22;7723;52.170;9.978;2023-09-19T00:27:37;15.30;99.90
15241;DHT22;7723;52.170;9.978;2023-09-19T00:30:10;15.50;99.90
15241;DHT22;7723;52.170;9.978;2023-09-19T00:32:42;15.60;99.90
15241;DHT22;7723;52.170;9.978;2023-09-19T00:35:13;15.60;99.90
15241;DHT22;7723;52.170;9.978;2023-09-19T00:37:41;15.60;99.90
15241;DHT22;7723;52.170;9.978;2023-09-19T00:40:10;15.70;99.90
15241;DHT22;7723;52.170;9.978;2023-09-19T00:42:38;15.70;99.90
15241;DHT22;7723;52.170;9.978;2023-09-19T00:45:09;15.60;99.90
15241;DHT22;7723;52.170;9.978;2023-09-19T00:47:37;15.50;99.90
15241;DHT22;7723;52.170;9.978;2023-09-19T00:50:06;15.50;99.90
15241;DHT22;7723;52.170;9.978;2023-09-19T00:52:34;15.50;99.90
15241;DHT22;7723;52.170;9.978;2023-09-19T00:55:05;15.50;99.90
15241;DHT22;7723;52.170;9.978;2023-09-19T00:57:33;15.50;99.90
15241;DHT22;7723;52.170;9.978;2023-09-19T01:00:01;15.50;99.90
15241;DHT22;7723;52.170;9.978;2023-09-19T01:02:34;15.50;99.90
15241;DHT22;7723;52.170;9.978;2023-09-19T01:05:01;15.50;99.90
15241;DHT22;7723;52.170;9.978;2023-09-19T01:07:32;15.50;99.90
15241;DHT22;7723;52.170;9.978;2023-09-19T01:10:00;15.60;99.90
15241;DHT22;7723;52.170;9.978;2023-09-19T01:12:33;15.60;99.90
15241;DHT22;7723;52.170;9.978;2023-09-19T01:15:08;15.60;99.90
15241;DHT22;7723;52.170;9.978;2023-09-19T01:17:46;15.70;99.90
15241;DHT22;7723;52.170;9.978;2023-09-19T01:20:22;15.60;99.90
15241;DHT22;7723;52.170;9.978;2023-09-19T01:22:57;15.70;99.90
15241;DHT22;7723;52.170;9.978;2023-09-19T01:26:03;15.60;99.90
15241;DHT22;7723;52.170;9.978;2023-09-19T01:28:39;15.60;99.90
15241;DHT22;7723;52.170;9.978;2023-09-19T01:31:12;15.60;99.90
15241;DHT22;7723;52.170;9.978;2023-09-19T01:33:56;15.50;99.90
15241;DHT22;7723;52.170;9.978;2023-09-19T01:36:28;15.50;99.90
15241;DHT22;7723;52.170;9.978;2023-09-19T01:38:57;15.50;99.90
15241;DHT22;7723;52.170;9.978;2023-09-19T01:41:33;15.50;99.90
15241;DHT22;7723;52.170;9.978;2023-09-19T01:44:04;15.50;99.90
15241;DHT22;7723;52.170;9.978;2023-09-19T01:46:39;15.60;99.90
15241;DHT22;7723;52.170;9.978;2023-09-19T01:49:16;15.60;99.90
15241;DHT22;7723;52.170;9.978;2023-09-19T01:51:55;15.70;99.90
15241;DHT22;7723;52.170;9.978;2023-09-19T01:54:26;15.60;99.90
15241;DHT22;7723;52.170;9.978;2023-09-19T01:57:01;15.60;99.90
15241;DHT22;7723;52.170;9.978;2023-09-19T01:59:35;15.60;99.90
15241;DHT22;7723;52.170;9.978;2023-09-19T02:02:06;15.60;99.90
15241;DHT22;7723;52.170;9.978;2023-09-19T02:04:34;15.60;99.90
15241;DHT22;7723;52.170;9.978;2023-09-19T02:07:02;15.70;99.90
15241;DHT22;7723;52.170;9.978;2023-09-19T02:09:31;15.60;99.90
15241;DHT22;7723;52.170;9.978;2023-09-19T02:12:01;15.60;99.90
15241;DHT22;7723;52.170;9.978;2023-09-19T02:14:30;15.60;99.90
15241;DHT22;7723;52.170;9.978;2023-09-19T02:16:57;15.60;99.90
15241;DHT22;7723;52.170;9.978;2023-09-19T02:19:27;15.50;99.90
15241;DHT22;7723;52.170;9.978;2023-09-19T02:21:55;15.60;99.90
15241;DHT22;7723;52.170;9.978;2023-09-19T02:24:23;15.60;99.90
15241;DHT22;7723;52.170;9.978;2023-09-19T02:26:52;15.60;99.90
15241;DHT22;7723;52.170;9.978;2023-09-19T02:29:20;15.60;99.90
15241;DHT22;7723;52.170;9.978;2023-09-19T02:31:47;15.70;99.90
15241;DHT22;7723;52.170;9.978;2023-09-19T02:34:15;15.70;99.90
15241;DHT22;7723;52.170;9.978;2023-09-19T02:36:44;15.70;99.90
15241;DHT22;7723;52.170;9.978;2023-09-19T02:39:12;15.70;99.90
15241;DHT22;7723;52.170;9.978;2023-09-19T02:41:39;15.60;99.90
15241;DHT22;7723;52.170;9.978;2023-09-19T02:44:07;15.70;99.90
15241;DHT22;7723;52.170;9.978;2023-09-19T02:46:35;15.70;99.90
15241;DHT22;7723;52.170;9.978;2023-09-19T02:49:03;15.70;99.90
15241;DHT22;7723;52.170;9.978;2023-09-19T02:51:32;15.70;99.90
15241;DHT22;7723;52.170;9.978;2023-09-19T02:54:01;15.60;99.90
15241;DHT22;7723;52.170;9.978;2023-09-19T02:56:29;15.60;99.90
15241;DHT22;7723;52.170;9.978;2023-09-19T02:58:58;15.60;99.90
15241;DHT22;7723;52.170;9.978;2023-09-19T03:01:26;15.60;99.90
15241;DHT22;7723;52.170;9.978;2023-09-19T03:03:54;15.60;99.90
15241;DHT22;7723;52.170;9.978;2023-09-19T03:06:21;15.60;99.90
15241;DHT22;7723;52.170;9.978;2023-09-19T03:08:49;15.60;99.90
15241;DHT22;7723;52.170;9.978;2023-09-19T03:11:18;15.50;99.90
15241;DHT22;7723;52.170;9.978;2023-09-19T03:13:51;15.50;99.90
15241;DHT22;7723;52.170;9.978;2023-09-19T03:16:19;15.50;99.90
15241;DHT22;7723;52.170;9.978;2023-09-19T03:18:47;15.60;99.90
15241;DHT22;7723;52.170;9.978;2023-09-19T03:21:15;15.50;99.90
15241;DHT22;7723;52.170;9.978;2023-09-19T03:23:43;15.50;99.90
15241;DHT22;7723;52.170;9.978;2023-09-19T03:26:12;15.40;99.90
15241;DHT22;7723;52.170;9.978;2023-09-19T03:28:43;15.40;99.90
15241;DHT22;7723;52.170;9.978;2023-09-19T03:31:11;15.40;99.90
15241;DHT22;7723;52.170;9.978;2023-09-19T03:33:38;15.30;99.90
15241;DHT22;7723;52.170;9.978;2023-09-19T03:36:06;15.40;99.90
15241;DHT22;7723;52.170;9.978;2023-09-19T03:38:33;15.30;99.90
15241;DHT22;7723;52.170;9.978;2023-09-19T03:41:01;15.30;99.90
15241;DHT22;7723;52.170;9.978;2023-09-19T03:43:28;15.30;99.90
15241;DHT22;7723;52.170;9.978;2023-09-19T03:46:00;15.30;99.90
15241;DHT22;7723;52.170;9.978;2023-09-19T03:48:28;15.20;99.90
15241;DHT22;7723;52.170;9.978;2023-09-19T03:50:56;15.20;99.90
15241;DHT22;7723;52.170;9.978;2023-09-19T03:53:23;15.20;99.90
15241;DHT22;7723;52.170;9.978;2023-09-19T03:55:50;15.10;99.90
15241;DHT22;7723;52.170;9.978;2023-09-19T03:58:17;15.00;99.90
15241;DHT22;7723;52.170;9.978;2023-09-19T04:00:44;14.90;99.90
15241;DHT22;7723;52.170;9.978;2023-09-19T04:03:13;14.90;99.90
15241;DHT22;7723;52.170;9.978;2023-09-19T04:05:45;15.00;99.90
15241;DHT22;7723;52.170;9.978;2023-09-19T04:08:13;15.00;99.90
15241;DHT22;7723;52.170;9.978;2023-09-19T04:10:42;15.00;99.90
15241;DHT22;7723;52.170;9.978;2023-09-19T04:13:11;14.90;99.90
15241;DHT22;7723;52.170;9.978;2023-09-19T04:15:38;14.90;99.90
15241;DHT22;7723;52.170;9.978;2023-09-19T04:18:06;14.90;99.90
15241;DHT22;7723;52.170;9.978;2023-09-19T04:20:34;14.90;99.90
15241;DHT22;7723;52.170;9.978;2023-09-19T04:23:01;15.00;99.90
15241;DHT22;7723;52.170;9.978;2023-09-19T04:25:30;15.00;99.90
15241;DHT22;7723;52.170;9.978;2023-09-19T04:27:57;15.00;99.90
15241;DHT22;7723;52.170;9.978;2023-09-19T04:30:24;15.00;99.90
15241;DHT22;7723;52.170;9.978;2023-09-19T04:32:52;15.00;99.90
15241;DHT22;7723;52.170;9.978;2023-09-19T04:35:20;14.90;99.90
15241;DHT22;7723;52.170;9.978;2023-09-19T04:37:48;14.90;99.90
15241;DHT22;7723;52.170;9.978;2023-09-19T04:40:17;14.80;99.90
15241;DHT22;7723;52.170;9.978;2023-09-19T04:42:45;14.70;99.90
15241;DHT22;7723;52.170;9.978;2023-09-19T04:45:12;14.70;99.90
15241;DHT22;7723;52.170;9.978;2023-09-19T04:47:39;14.70;99.90
15241;DHT22;7723;52.170;9.978;2023-09-19T04:50:08;14.70;99.90
15241;DHT22;7723;52.170;9.978;2023-09-19T04:52:40;14.70;99.90
15241;DHT22;7723;52.170;9.978;2023-09-19T04:55:11;14.70;99.90
15241;DHT22;7723;52.170;9.978;2023-09-19T04:57:44;14.80;99.90
15241;DHT22;7723;52.170;9.978;2023-09-19T05:00:13;14.70;99.90
15241;DHT22;7723;52.170;9.978;2023-09-19T05:02:42;14.70;99.90
15241;DHT22;7723;52.170;9.978;2023-09-19T05:05:10;14.70;99.90
15241;DHT22;7723;52.170;9.978;2023-09-19T05:07:39;14.70;99.90
15241;DHT22;7723;52.170;9.978;2023-09-19T05:10:08;14.70;99.90
15241;DHT22;7723;52.170;9.978;2023-09-19T05:12:38;14.70;99.90
15241;DHT22;7723;52.170;9.978;2023-09-19T05:15:07;14.70;99.90
15241;DHT22;7723;52.170;9.978;2023-09-19T05:17:34;14.70;99.90
15241;DHT22;7723;52.170;9.978;2023-09-19T05:20:02;14.60;99.90
15241;DHT22;7723;52.170;9.978;2023-09-19T05:22:40;14.70;99.90
15241;DHT22;7723;52.170;9.978;2023-09-19T05:25:08;14.70;99.90
15241;DHT22;7723;52.170;9.978;2023-09-19T05:27:37;14.70;99.90
15241;DHT22;7723;52.170;9.978;2023-09-19T05:30:06;14.80;99.90
15241;DHT22;7723;52.170;9.978;2023-09-19T05:32:33;14.90;99.90
15241;DHT22;7723;52.170;9.978;2023-09-19T05:35:00;14.90;99.90
15241;DHT22;7723;52.170;9.978;2023-09-19T05:37:29;14.90;99.90
15241;DHT22;7723;52.170;9.978;2023-09-19T05:39:56;14.90;99.90
15241;DHT22;7723;52.170;9.978;2023-09-19T05:42:23;14.90;99.90
15241;DHT22;7723;52.170;9.978;2023-09-19T05:44:53;14.80;99.90
15241;DHT22;7723;52.170;9.978;2023-09-19T05:47:20;14.80;99.90
15241;DHT22;7723;52.170;9.978;2023-09-19T05:49:48;14.90;99.90
15241;DHT22;7723;52.170;9.978;2023-09-19T05:52:15;14.80;99.90
15241;DHT22;7723;52.170;9.978;2023-09-19T05:54:43;14.80;99.90
15241;DHT22;7723;52.170;9.978;2023-09-19T05:57:10;14.80;99.90
15241;DHT22;7723;52.170;9.978;2023-09-19T05:59:37;14.80;99.90
15241;DHT22;7723;52.170;9.978;2023-09-19T06:02:07;14.70;99.90
15241;DHT22;7723;52.170;9.978;2023-09-19T06:04:35;14.70;99.90
15241;DHT22;7723;52.170;9.978;2023-09-19T06:07:04;14.70;99.90
15241;DHT22;7723;52.170;9.978;2023-09-19T06:09:31;14.70;99.90
15241;DHT22;7723;52.170;9.978;2023-09-19T06:11:59;14.80;99.90
15241;DHT22;7723;52.170;9.978;2023-09-19T06:14:29;14.90;99.90
15241;DHT22;7723;52.170;9.978;2023-09-19T06:16:56;15.10;99.90
15241;DHT22;7723;52.170;9.978;2023-09-19T06:19:25;15.30;99.90
15241;DHT22;7723;52.170;9.978;2023-09-19T06:21:52;15.50;99.90
15241;DHT22;7723;52.170;9.978;2023-09-19T06:24:20;15.80;99.90
15241;DHT22;7723;52.170;9.978;2023-09-19T06:26:47;15.80;90.50
15241;DHT22;7723;52.170;9.978;2023-09-19T06:29:15;15.80;59.20
15241;DHT22;7723;52.170;9.978;2023-09-19T06:31:42;15.90;45.70
15241;DHT22;7723;52.170;9.978;2023-09-19T06:34:12;16.30;1.00
15241;DHT22;7723;52.170;9.978;2023-09-19T06:36:42;16.40;1.00
15241;DHT22;7723;52.170;9.978;2023-09-19T06:39:10;16.10;1.00
15241;DHT22;7723;52.170;9.978;2023-09-19T06:41:37;16.00;1.00
15241;DHT22;7723;52.170;9.978;2023-09-19T06:44:05;16.10;1.00
15241;DHT22;7723;52.170;9.978;2023-09-19T06:46:32;16.40;1.00
15241;DHT22;7723;52.170;9.978;2023-09-19T06:49:00;16.70;1.00
15241;DHT22;7723;52.170;9.978;2023-09-19T06:51:31;17.30;1.00
15241;DHT22;7723;52.170;9.978;2023-09-19T06:54:01;17.60;1.00
15241;DHT22;7723;52.170;9.978;2023-09-19T06:56:30;17.80;99.90
15241;DHT22;7723;52.170;9.978;2023-09-19T06:58:58;18.30;99.90
15241;DHT22;7723;52.170;9.978;2023-09-19T07:01:26;18.50;57.60
15241;DHT22;7723;52.170;9.978;2023-09-19T07:03:53;18.70;1.00
15241;DHT22;7723;52.170;9.978;2023-09-19T07:06:20;19.00;1.00
15241;DHT22;7723;52.170;9.978;2023-09-19T07:08:47;19.00;99.90
15241;DHT22;7723;52.170;9.978;2023-09-19T07:11:17;18.70;99.90
15241;DHT22;7723;52.170;9.978;2023-09-19T07:13:44;18.60;99.90
15241;DHT22;7723;52.170;9.978;2023-09-19T07:16:12;18.70;99.90
15241;DHT22;7723;52.170;9.978;2023-09-19T07:18:52;19.30;1.00
15241;DHT22;7723;52.170;9.978;2023-09-19T07:21:20;19.80;1.00
15241;DHT22;7723;52.170;9.978;2023-09-19T07:23:47;20.10;99.90
15241;DHT22;7723;52.170;9.978;2023-09-19T07:26:17;19.80;1.00
15241;DHT22;7723;52.170;9.978;2023-09-19T07:28:44;19.80;1.00
15241;DHT22;7723;52.170;9.978;2023-09-19T07:31:11;19.90;26.80
15241;DHT22;7723;52.170;9.978;2023-09-19T07:33:39;19.90;1.00
15241;DHT22;7723;52.170;9.978;2023-09-19T07:36:10;20.10;99.90
15241;DHT22;7723;52.170;9.978;2023-09-19T07:38:39;19.60;99.90
15241;DHT22;7723;52.170;9.978;2023-09-19T07:41:07;19.30;1.00
15241;DHT22;7723;52.170;9.978;2023-09-19T07:43:36;19.10;99.90
15241;DHT22;7723;52.170;9.978;2023-09-19T07:46:05;18.90;1.00
15241;DHT22;7723;52.170;9.978;2023-09-19T07:48:35;18.60;99.90
15241;DHT22;7723;52.170;9.978;2023-09-19T07:51:03;18.30;1.00
15241;DHT22;7723;52.170;9.978;2023-09-19T07:53:31;18.20;99.90
15241;DHT22;7723;52.170;9.978;2023-09-19T07:56:04;18.50;90.20
15241;DHT22;7723;52.170;9.978;2023-09-19T07:58:32;18.20;1.00
15241;DHT22;7723;52.170;9.978;2023-09-19T08:01:04;18.10;99.90
15241;DHT22;7723;52.170;9.978;2023-09-19T08:03:32;18.00;99.90
15241;DHT22;7723;52.170;9.978;2023-09-19T08:06:00;17.80;99.90
15241;DHT22;7723;52.170;9.978;2023-09-19T08:08:28;17.80;1.00
15241;DHT22;7723;52.170;9.978;2023-09-19T08:10:55;17.70;1.00
15241;DHT22;7723;52.170;9.978;2023-09-19T08:13:23;17.70;1.00
15241;DHT22;7723;52.170;9.978;2023-09-19T08:15:50;17.70;1.00
15241;DHT22;7723;52.170;9.978;2023-09-19T08:18:20;17.60;1.00
15241;DHT22;7723;52.170;9.978;2023-09-19T08:20:51;17.80;1.00
15241;DHT22;7723;52.170;9.978;2023-09-19T08:23:19;17.80;1.00
15241;DHT22;7723;52.170;9.978;2023-09-19T08:25:47;17.60;99.90
15241;DHT22;7723;52.170;9.978;2023-09-19T08:28:14;17.60;1.00
15241;DHT22;7723;52.170;9.978;2023-09-19T08:30:45;18.00;99.90
15241;DHT22;7723;52.170;9.978;2023-09-19T08:33:12;18.20;16.50
15241;DHT22;7723;52.170;9.978;2023-09-19T08:35:42;18.60;1.00
15241;DHT22;7723;52.170;9.978;2023-09-19T08:38:11;18.90;1.00
15241;DHT22;7723;52.170;9.978;2023-09-19T08:40:39;19.00;1.00
15241;DHT22;7723;52.170;9.978;2023-09-19T08:43:08;19.50;1.00
15241;DHT22;7723;52.170;9.978;2023-09-19T08:45:36;19.70;1.00
15241;DHT22;7723;52.170;9.978;2023-09-19T08:48:16;19.90;1.00
15241;DHT22;7723;52.170;9.978;2023-09-19T08:50:49;20.10;1.00
15241;DHT22;7723;52.170;9.978;2023-09-19T08:53:23;19.90;99.90
15241;DHT22;7723;52.170;9.978;2023-09-19T08:55:53;19.70;89.90
15241;DHT22;7723;52.170;9.978;2023-09-19T08:58:26;19.20;1.00
15241;DHT22;7723;52.170;9.978;2023-09-19T09:00:56;19.20;99.90
15241;DHT22;7723;52.170;9.978;2023-09-19T09:03:29;19.30;1.00
15241;DHT22;7723;52.170;9.978;2023-09-19T09:06:01;19.80;1.00
15241;DHT22;7723;52.170;9.978;2023-09-19T09:08:31;19.10;1.00
15241;DHT22;7723;52.170;9.978;2023-09-19T09:10:59;19.20;99.90
15241;DHT22;7723;52.170;9.978;2023-09-19T09:13:26;19.20;99.90
15241;DHT22;7723;52.170;9.978;2023-09-19T09:15:53;19.30;19.50
15241;DHT22;7723;52.170;9.978;2023-09-19T09:18:21;19.30;99.90
15241;DHT22;7723;52.170;9.978;2023-09-19T09:20:49;19.40;99.90
15241;DHT22;7723;52.170;9.978;2023-09-19T09:23:18;19.40;99.90
15241;DHT22;7723;52.170;9.978;2023-09-19T09:25:47;19.50;99.90
15241;DHT22;7723;52.170;9.978;2023-09-19T09:28:20;19.50;1.00
15241;DHT22;7723;52.170;9.978;2023-09-19T09:30:47;19.50;99.90
15241;DHT22;7723;52.170;9.978;2023-09-19T09:33:15;19.50;1.00
15241;DHT22;7723;52.170;9.978;2023-09-19T09:35:49;19.40;74.10
15241;DHT22;7723;52.170;9.978;2023-09-19T09:38:20;19.40;99.90
15241;DHT22;7723;52.170;9.978;2023-09-19T09:40:52;19.70;1.00
15241;DHT22;7723;52.170;9.978;2023-09-19T09:43:32;19.90;1.00
15241;DHT22;7723;52.170;9.978;2023-09-19T09:46:10;20.10;99.90
15241;DHT22;7723;52.170;9.978;2023-09-19T09:48:57;19.70;1.00
15241;DHT22;7723;52.170;9.978;2023-09-19T09:51:59;19.70;1.00
15241;DHT22;7723;52.170;9.978;2023-09-19T09:54:28;19.90;99.90
15241;DHT22;7723;52.170;9.978;2023-09-19T09:57:03;19.80;1.00
15241;DHT22;7723;52.170;9.978;2023-09-19T09:59:50;19.40;1.00
15241;DHT22;7723;52.170;9.978;2023-09-19T10:02:19;19.30;1.00
15241;DHT22;7723;52.170;9.978;2023-09-19T10:04:51;19.30;1.00
15241;DHT22;7723;52.170;9.978;2023-09-19T10:07:28;19.70;1.00
15241;DHT22;7723;52.170;9.978;2023-09-19T10:10:01;19.80;99.90
15241;DHT22;7723;52.170;9.978;2023-09-19T10:12:43;19.40;99.90
15241;DHT22;7723;52.170;9.978;2023-09-19T10:15:11;19.40;99.90
15241;DHT22;7723;52.170;9.978;2023-09-19T10:17:43;19.50;1.00
15241;DHT22;7723;52.170;9.978;2023-09-19T10:20:12;19.30;99.90
15241;DHT22;7723;52.170;9.978;2023-09-19T10:23:00;19.40;1.00
15241;DHT22;7723;52.170;9.978;2023-09-19T10:25:29;19.80;1.00
15241;DHT22;7723;52.170;9.978;2023-09-19T10:27:58;19.20;1.00
15241;DHT22;7723;52.170;9.978;2023-09-19T10:30:29;19.10;1.00
15241;DHT22;7723;52.170;9.978;2023-09-19T10:33:01;19.10;99.90
15241;DHT22;7723;52.170;9.978;2023-09-19T10:35:29;18.90;99.90
15241;DHT22;7723;52.170;9.978;2023-09-19T10:38:00;18.90;99.90
15241;DHT22;7723;52.170;9.978;2023-09-19T10:40:29;19.10;1.00
15241;DHT22;7723;52.170;9.978;2023-09-19T10:43:02;19.20;99.90
15241;DHT22;7723;52.170;9.978;2023-09-19T10:45:32;19.20;1.00
15241;DHT22;7723;52.170;9.978;2023-09-19T10:47:59;19.50;99.90
15241;DHT22;7723;52.170;9.978;2023-09-19T10:50:31;19.70;1.00
15241;DHT22;7723;52.170;9.978;2023-09-19T10:53:02;19.40;1.00
15241;DHT22;7723;52.170;9.978;2023-09-19T10:55:35;19.40;1.00
15241;DHT22;7723;52.170;9.978;2023-09-19T10:58:03;19.60;1.00
15241;DHT22;7723;52.170;9.978;2023-09-19T11:00:53;19.60;1.00
15241;DHT22;7723;52.170;9.978;2023-09-19T11:03:22;19.50;1.00
15241;DHT22;7723;52.170;9.978;2023-09-19T11:06:05;19.50;99.90
15241;DHT22;7723;52.170;9.978;2023-09-19T11:08:56;19.60;1.00
15241;DHT22;7723;52.170;9.978;2023-09-19T11:11:48;19.50;1.00
15241;DHT22;7723;52.170;9.978;2023-09-19T11:14:38;19.60;1.00
15241;DHT22;7723;52.170;9.978;2023-09-19T11:17:31;19.50;1.00
15241;DHT22;7723;52.170;9.978;2023-09-19T11:20:20;19.70;99.90
15241;DHT22;7723;52.170;9.978;2023-09-19T11:23:23;19.80;1.00
15241;DHT22;7723;52.170;9.978;2023-09-19T11:25:53;19.80;99.90
15241;DHT22;7723;52.170;9.978;2023-09-19T11:28:35;19.70;99.90
15241;DHT22;7723;52.170;9.978;2023-09-19T11:31:41;19.50;1.00
15241;DHT22;7723;52.170;9.978;2023-09-19T11:34:38;19.70;99.90
15241;DHT22;7723;52.170;9.978;2023-09-19T11:40:08;19.60;1.00
15241;DHT22;7723;52.170;9.978;2023-09-19T11:42:43;19.60;1.00
15241;DHT22;7723;52.170;9.978;2023-09-19T11:46:05;19.80;1.00
15241;DHT22;7723;52.170;9.978;2023-09-19T11:48:33;19.80;99.90
15241;DHT22;7723;52.170;9.978;2023-09-19T11:51:14;20.00;1.00
15241;DHT22;7723;52.170;9.978;2023-09-19T11:53:50;20.00;1.00
15241;DHT22;7723;52.170;9.978;2023-09-19T11:56:18;19.70;98.10
15241;DHT22;7723;52.170;9.978;2023-09-19T11:58:46;19.70;1.00
15241;DHT22;7723;52.170;9.978;2023-09-19T12:01:22;19.70;67.10
15241;DHT22;7723;52.170;9.978;2023-09-19T12:03:53;19.90;99.90
15241;DHT22;7723;52.170;9.978;2023-09-19T12:06:23;19.80;1.00
15241;DHT22;7723;52.170;9.978;2023-09-19T12:08:50;19.80;1.00
15241;DHT22;7723;52.170;9.978;2023-09-19T12:11:22;19.80;1.00
15241;DHT22;7723;52.170;9.978;2023-09-19T12:13:50;19.90;1.00
15241;DHT22;7723;52.170;9.978;2023-09-19T12:16:21;20.00;99.90
15241;DHT22;7723;52.170;9.978;2023-09-19T12:18:49;20.10;1.00
15241;DHT22;7723;52.170;9.978;2023-09-19T12:21:24;20.20;99.90
15241;DHT22;7723;52.170;9.978;2023-09-19T12:24:00;20.00;99.90
15241;DHT22;7723;52.170;9.978;2023-09-19T12:26:38;19.90;95.70
15241;DHT22;7723;52.170;9.978;2023-09-19T12:29:12;19.80;99.90
15241;DHT22;7723;52.170;9.978;2023-09-19T12:31:49;19.80;99.90
15241;DHT22;7723;52.170;9.978;2023-09-19T12:34:20;19.80;99.90
15241;DHT22;7723;52.170;9.978;2023-09-19T12:36:48;19.80;99.90
15241;DHT22;7723;52.170;9.978;2023-09-19T12:39:25;19.80;1.00
15241;DHT22;7723;52.170;9.978;2023-09-19T12:41:52;19.90;99.90
15241;DHT22;7723;52.170;9.978;2023-09-19T12:44:20;19.80;1.00
15241;DHT22;7723;52.170;9.978;2023-09-19T12:46:52;19.70;99.90
15241;DHT22;7723;52.170;9.978;2023-09-19T12:49:20;19.60;8.90
15241;DHT22;7723;52.170;9.978;2023-09-19T12:51:49;19.50;99.90
15241;DHT22;7723;52.170;9.978;2023-09-19T12:54:18;19.60;1.00
15241;DHT22;7723;52.170;9.978;2023-09-19T12:56:46;19.40;25.10
15241;DHT22;7723;52.170;9.978;2023-09-19T12:59:15;19.50;1.00
15241;DHT22;7723;52.170;9.978;2023-09-19T13:01:43;19.30;99.90
15241;DHT22;7723;52.170;9.978;2023-09-19T13:04:15;19.20;1.00
15241;DHT22;7723;52.170;9.978;2023-09-19T13:06:45;19.30;1.00
15241;DHT22;7723;52.170;9.978;2023-09-19T13:09:15;19.40;79.70
15241;DHT22;7723;52.170;9.978;2023-09-19T13:11:43;19.50;1.00
15241;DHT22;7723;52.170;9.978;2023-09-19T13:14:17;19.50;1.00
15241;DHT22;7723;52.170;9.978;2023-09-19T13:16:59;19.40;82.90
15241;DHT22;7723;52.170;9.978;2023-09-19T13:19:37;19.40;1.00
15241;DHT22;7723;52.170;9.978;2023-09-19T13:22:05;19.40;1.00
15241;DHT22;7723;52.170;9.978;2023-09-19T13:24:34;19.30;5.70
15241;DHT22;7723;52.170;9.978;2023-09-19T13:27:05;19.20;1.00
15241;DHT22;7723;52.170;9.978;2023-09-19T13:29:33;19.20;44.60
15241;DHT22;7723;52.170;9.978;2023-09-19T13:32:01;19.20;1.00
15241;DHT22;7723;52.170;9.978;2023-09-19T13:34:30;19.30;99.90
15241;DHT22;7723;52.170;9.978;2023-09-19T13:36:58;19.30;1.00
15241;DHT22;7723;52.170;9.978;2023-09-19T13:39:25;19.30;1.00
15241;DHT22;7723;52.170;9.978;2023-09-19T13:41:53;19.40;1.00
15241;DHT22;7723;52.170;9.978;2023-09-19T13:44:20;19.30;1.00
15241;DHT22;7723;52.170;9.978;2023-09-19T13:46:48;19.30;99.90
15241;DHT22;7723;52.170;9.978;2023-09-19T13:49:15;19.30;1.00
15241;DHT22;7723;52.170;9.978;2023-09-19T13:51:43;19.20;1.00
15241;DHT22;7723;52.170;9.978;2023-09-19T13:54:12;19.10;99.90
15241;DHT22;7723;52.170;9.978;2023-09-19T13:56:39;19.00;99.90
15241;DHT22;7723;52.170;9.978;2023-09-19T13:59:07;18.90;99.90
15241;DHT22;7723;52.170;9.978;2023-09-19T14:01:34;18.90;99.90
15241;DHT22;7723;52.170;9.978;2023-09-19T14:04:01;18.80;99.90
15241;DHT22;7723;52.170;9.978;2023-09-19T14:06:28;18.90;99.90
15241;DHT22;7723;52.170;9.978;2023-09-19T14:08:55;19.00;1.00
15241;DHT22;7723;52.170;9.978;2023-09-19T14:11:24;19.00;99.90
15241;DHT22;7723;52.170;9.978;2023-09-19T14:13:52;19.00;99.90
15241;DHT22;7723;52.170;9.978;2023-09-19T14:16:19;18.90;99.10
15241;DHT22;7723;52.170;9.978;2023-09-19T14:18:48;18.80;99.90
15241;DHT22;7723;52.170;9.978;2023-09-19T14:21:15;18.90;1.00
15241;DHT22;7723;52.170;9.978;2023-09-19T14:23:42;18.90;99.90
15241;DHT22;7723;52.170;9.978;2023-09-19T14:26:10;18.90;16.00
15241;DHT22;7723;52.170;9.978;2023-09-19T14:28:39;18.90;1.00
15241;DHT22;7723;52.170;9.978;2023-09-19T14:31:07;18.90;1.00
15241;DHT22;7723;52.170;9.978;2023-09-19T14:33:34;18.90;1.00
15241;DHT22;7723;52.170;9.978;2023-09-19T14:36:05;18.90;1.00
15241;DHT22;7723;52.170;9.978;2023-09-19T14:38:35;18.80;1.00
15241;DHT22;7723;52.170;9.978;2023-09-19T14:41:03;18.70;99.50
15241;DHT22;7723;52.170;9.978;2023-09-19T14:43:30;18.90;1.00
15241;DHT22;7723;52.170;9.978;2023-09-19T14:46:02;18.90;75.70
15241;DHT22;7723;52.170;9.978;2023-09-19T14:48:29;18.80;18.90
15241;DHT22;7723;52.170;9.978;2023-09-19T14:51:02;18.80;1.00
15241;DHT22;7723;52.170;9.978;2023-09-19T14:53:29;18.80;1.00
15241;DHT22;7723;52.170;9.978;2023-09-19T14:55:56;18.90;32.30
15241;DHT22;7723;52.170;9.978;2023-09-19T14:58:23;18.90;1.00
15241;DHT22;7723;52.170;9.978;2023-09-19T15:00:51;18.90;1.00
15241;DHT22;7723;52.170;9.978;2023-09-19T15:03:20;19.00;1.00
15241;DHT22;7723;52.170;9.978;2023-09-19T15:05:47;18.90;1.00
15241;DHT22;7723;52.170;9.978;2023-09-19T15:08:14;19.00;1.00
15241;DHT22;7723;52.170;9.978;2023-09-19T15:10:41;18.90;1.00
15241;DHT22;7723;52.170;9.978;2023-09-19T15:13:18;18.90;2.50
15241;DHT22;7723;52.170;9.978;2023-09-19T15:15:45;19.10;90.60
15241;DHT22;7723;52.170;9.978;2023-09-19T15:18:13;19.20;1.00
15241;DHT22;7723;52.170;9.978;2023-09-19T15:20:44;19.20;1.00
15241;DHT22;7723;52.170;9.978;2023-09-19T15:23:12;19.20;1.00
15241;DHT22;7723;52.170;9.978;2023-09-19T15:25:39;19.20;99.90
15241;DHT22;7723;52.170;9.978;2023-09-19T15:28:06;19.20;1.00
15241;DHT22;7723;52.170;9.978;2023-09-19T15:30:37;19.20;1.00
15241;DHT22;7723;52.170;9.978;2023-09-19T15:33:04;19.20;1.00
15241;DHT22;7723;52.170;9.978;2023-09-19T15:35:32;19.10;1.00
15241;DHT22;7723;52.170;9.978;2023-09-19T15:38:00;19.10;1.00
15241;DHT22;7723;52.170;9.978;2023-09-19T15:40:27;19.00;99.90
15241;DHT22;7723;52.170;9.978;2023-09-19T15:42:54;19.00;99.90
15241;DHT22;7723;52.170;9.978;2023-09-19T15:45:23;19.10;1.00
15241;DHT22;7723;52.170;9.978;2023-09-19T15:47:51;19.10;99.90
15241;DHT22;7723;52.170;9.978;2023-09-19T15:50:18;19.10;64.70
15241;DHT22;7723;52.170;9.978;2023-09-19T15:52:53;19.20;1.00
15241;DHT22;7723;52.170;9.978;2023-09-19T15:55:23;19.20;1.00
15241;DHT22;7723;52.170;9.978;2023-09-19T15:57:51;19.20;1.00
15241;DHT22;7723;52.170;9.978;2023-09-19T16:00:19;19.10;99.90
15241;DHT22;7723;52.170;9.978;2023-09-19T16:02:46;19.10;99.90
15241;DHT22;7723;52.170;9.978;2023-09-19T16:05:16;19.00;99.90
15241;DHT22;7723;52.170;9.978;2023-09-19T16:07:43;19.00;99.90
15241;DHT22;7723;52.170;9.978;2023-09-19T16:10:10;19.00;99.90
15241;DHT22;7723;52.170;9.978;2023-09-19T16:12:40;18.90;1.00
15241;DHT22;7723;52.170;9.978;2023-09-19T16:15:08;18.90;1.00